Saga Tide — VRYO8 — position and weather

sailwx.info

Track history (hours):
 
Tides and Currents Weather Stations Pressure Air Temp Water Temp Dewpoint Dewpoint Depression Visibility Wind Speed Wind Dir Waves Ship Positions

Saga Tide

Last reported at 2018-Feb-19 00:35 UTC. Time now 2018-Feb-20 04:20 UTC.
Position N 37°54' E 122°42'.

Length 199 m; draft 8.1 m.

Type: Cargo ship. MMSI: 367154168.

Date/timePositionNaut miles runAvg speedWind from/ knotsBaromVisibWave heightAir tempDewpointWater temp
2018-Feb-19 00:35N 37°54' E 122°42'213.7
2018-Feb-19 00:25N 37°53' E 122°44'  
2018-Feb-15 11:09N 31°32' E 123°01'1911.9
2018-Feb-15 09:36N 31°17' E 122°48'212.6
2018-Feb-15 09:26N 31°16' E 122°46'2610.0
2018-Feb-15 06:52N 31°06' E 122°18'1214.1
2018-Feb-15 06:01N 31°13' E 122°07'012.9
2018-Feb-15 06:00N 31°13' E 122°07'1012.3
2018-Feb-15 05:13N 31°15' E 121°56'211.3
2018-Feb-15 05:00N 31°16' E 121°53'510.4
2018-Feb-15 04:31N 31°18' E 121°47'5 9.6
2018-Feb-15 03:57N 31°20' E 121°42'4 7.9
2018-Feb-15 03:29N 31°22' E 121°38'4 8.2
2018-Feb-15 02:59N 31°24' E 121°34'4 7.7
2018-Feb-15 02:30N 31°26' E 121°30'4 8.2
2018-Feb-15 02:00N 31°29' E 121°27'510.2
2018-Feb-15 01:30N 31°32' E 121°22'510.1
2018-Feb-15 01:00N 31°35' E 121°18'714.0
2018-Feb-15 00:30N 31°40' E 121°12'713.9
2018-Feb-15 00:00N 31°45' E 121°05'  
2018-Feb-12 00:16N 31°46' E 120°57'2 5.5
2018-Feb-11 23:58N 31°47' E 120°59'3 5.8
2018-Feb-11 23:30N 31°47' E 121°02'0 0.2
2018-Feb-11 22:34N 31°47' E 121°02'0 0.0
2018-Feb-11 22:16N 31°47' E 121°02'0 0.0
2018-Feb-11 21:58N 31°47' E 121°02'0 0.0
2018-Feb-11 21:28N 31°47' E 121°02'0 0.0
2018-Feb-11 16:16N 31°47' E 121°02'0 0.0
2018-Feb-11 11:22N 31°47' E 121°02'0 0.0
2018-Feb-11 10:52N 31°47' E 121°02'0 0.0
2018-Feb-11 10:22N 31°47' E 121°02'0 0.0
2018-Feb-11 09:58N 31°47' E 121°02'0 0.0
2018-Feb-11 09:16N 31°47' E 121°02'0 0.0
2018-Feb-11 08:52N 31°47' E 121°02'0 0.0
2018-Feb-11 08:28N 31°47' E 121°02'0 0.0
2018-Feb-11 07:58N 31°47' E 121°02'0 0.0
2018-Feb-11 07:28N 31°47' E 121°02'0 0.0
2018-Feb-11 06:16N 31°47' E 121°02'0 0.0
2018-Feb-11 05:58N 31°47' E 121°02'0 0.1
2018-Feb-11 04:10N 31°47' E 121°02'0 0.0
2018-Feb-11 03:58N 31°47' E 121°02'0 0.0
2018-Feb-11 01:16N 31°47' E 121°02'0 0.1
2018-Feb-10 23:46N 31°47' E 121°02'0 0.1
2018-Feb-10 23:25N 31°47' E 121°02'0 0.0
2018-Feb-10 22:52N 31°47' E 121°02'0 0.0
2018-Feb-10 22:28N 31°47' E 121°02'0 0.0
2018-Feb-10 21:58N 31°47' E 121°02'0 0.0
2018-Feb-10 21:28N 31°47' E 121°02'0 0.0
2018-Feb-10 04:40N 31°47' E 121°02'0 0.0
2018-Feb-10 04:22N 31°47' E 121°02'0 0.1
2018-Feb-10 03:04N 31°47' E 121°02'0 0.0
2018-Feb-10 02:40N 31°47' E 121°02'0 0.0
2018-Feb-10 02:28N 31°47' E 121°02'  
Track history (hours):
 
Tides and Currents Weather Stations Pressure Air Temp Water Temp Dewpoint Dewpoint Depression Visibility Wind Speed Wind Dir Waves Ship Positions

Saga Tide

Last reported at 2018-Feb-19 00:35 UTC. Time now 2018-Feb-20 04:20 UTC.
Position N 37°54' E 122°42'.

Length 199 m; draft 8.1 m.

Type: Cargo ship. MMSI: 367154168.

Date/timePositionNaut miles runAvg speedWind from/ knotsBaromVisibWave heightAir tempDewpointWater temp
2018-Feb-19 00:35N 37°54' E 122°42'213.7
2018-Feb-19 00:25N 37°53' E 122°44'  
2018-Feb-15 11:09N 31°32' E 123°01'1911.9
2018-Feb-15 09:36N 31°17' E 122°48'212.6
2018-Feb-15 09:26N 31°16' E 122°46'2610.0
2018-Feb-15 06:52N 31°06' E 122°18'1214.1
2018-Feb-15 06:01N 31°13' E 122°07'012.9
2018-Feb-15 06:00N 31°13' E 122°07'1012.3
2018-Feb-15 05:13N 31°15' E 121°56'211.3
2018-Feb-15 05:00N 31°16' E 121°53'510.4
2018-Feb-15 04:31N 31°18' E 121°47'5 9.6
2018-Feb-15 03:57N 31°20' E 121°42'4 7.9
2018-Feb-15 03:29N 31°22' E 121°38'4 8.2
2018-Feb-15 02:59N 31°24' E 121°34'4 7.7
2018-Feb-15 02:30N 31°26' E 121°30'4 8.2
2018-Feb-15 02:00N 31°29' E 121°27'510.2
2018-Feb-15 01:30N 31°32' E 121°22'510.1
2018-Feb-15 01:00N 31°35' E 121°18'714.0
2018-Feb-15 00:30N 31°40' E 121°12'713.9
2018-Feb-15 00:00N 31°45' E 121°05'  
2018-Feb-12 00:16N 31°46' E 120°57'2 5.5
2018-Feb-11 23:58N 31°47' E 120°59'3 5.8
2018-Feb-11 23:30N 31°47' E 121°02'0 0.2
2018-Feb-11 22:34N 31°47' E 121°02'0 0.0
2018-Feb-11 22:16N 31°47' E 121°02'0 0.0
2018-Feb-11 21:58N 31°47' E 121°02'0 0.0
2018-Feb-11 21:28N 31°47' E 121°02'0 0.0
2018-Feb-11 16:16N 31°47' E 121°02'0 0.0
2018-Feb-11 11:22N 31°47' E 121°02'0 0.0
2018-Feb-11 10:52N 31°47' E 121°02'0 0.0
2018-Feb-11 10:22N 31°47' E 121°02'0 0.0
2018-Feb-11 09:58N 31°47' E 121°02'0 0.0
2018-Feb-11 09:16N 31°47' E 121°02'0 0.0
2018-Feb-11 08:52N 31°47' E 121°02'0 0.0
2018-Feb-11 08:28N 31°47' E 121°02'0 0.0
2018-Feb-11 07:58N 31°47' E 121°02'0 0.0
2018-Feb-11 07:28N 31°47' E 121°02'0 0.0
2018-Feb-11 06:16N 31°47' E 121°02'0 0.0
2018-Feb-11 05:58N 31°47' E 121°02'0 0.1
2018-Feb-11 04:10N 31°47' E 121°02'0 0.0
2018-Feb-11 03:58N 31°47' E 121°02'0 0.0
2018-Feb-11 01:16N 31°47' E 121°02'0 0.1
2018-Feb-10 23:46N 31°47' E 121°02'0 0.1
2018-Feb-10 23:25N 31°47' E 121°02'0 0.0
2018-Feb-10 22:52N 31°47' E 121°02'0 0.0
2018-Feb-10 22:28N 31°47' E 121°02'0 0.0
2018-Feb-10 21:58N 31°47' E 121°02'0 0.0
2018-Feb-10 21:28N 31°47' E 121°02'0 0.0
2018-Feb-10 04:40N 31°47' E 121°02'0 0.0
2018-Feb-10 04:22N 31°47' E 121°02'0 0.1
2018-Feb-10 03:04N 31°47' E 121°02'0 0.0
2018-Feb-10 02:40N 31°47' E 121°02'0 0.0
2018-Feb-10 02:28N 31°47' E 121°02'  

Dump ship's entire track history